Foster Falls, Virginia
Current Conditions -  °F | °C
As of 6:55 AM on Saturday 01 Nov 2014 (Local Time) from KHLX Reporting Station
Light Snow Light Snow  
Wind Chill: 22°   Ceiling: 400
Heat Index: 32°   Visibility: 2.5mi
Dew Point: 32°   Wind: 14mph
Humidity: 99%   Direction: 340°NNW
Pressure: 29.77"   Gusts: 17mph
Location:  36.9453°N, 80.9266°W
Report Text: KHLX 011055Z AUTO 34012G15KT 2 1/2SM -SN OVC004 00/00 A2977 RMK AO2 T00001001
Loading
Personal Weather Stations






























Interactive Weather Map
Tropical Storm Tracking
New forecast layout! Learn more

10-Day Weather Forecast

Advertisements
Track Severe Weather on mobile